Time;durP1;ratioP1;P1;durP2;ratioP2;P2;SDS_P1;SDS_P2;PMS_P1;PMS_P2;Temp;Humidity;BMP_temperature;BMP_pressure;BME280_temperature;BME280_humidity;BME280_pressure;Samples;Min_cycle;Max_cycle;Signal;HPM_P1;HPM_P2
2022/03/17 00:02:09;;;;;;;31.05;21.52;;;10.20;99.90;;;;;;4999317;28;20057;-76
2022/03/17 00:04:35;;;;;;;29.83;21.58;;;10.20;99.90;;;;;;4999149;28;20054;-71
2022/03/17 00:07:01;;;;;;;28.38;20.15;;;10.20;99.90;;;;;;4965896;28;20057;-73
2022/03/17 00:09:27;;;;;;;30.02;20.77;;;10.20;99.90;;;;;;4981720;28;20046;-74
2022/03/17 00:11:52;;;;;;;29.73;20.48;;;10.20;99.90;;;;;;4998993;28;20049;-71
2022/03/17 00:14:19;;;;;;;31.58;19.88;;;10.20;99.90;;;;;;4981507;28;20117;-73
2022/03/17 00:16:45;;;;;;;29.40;20.35;;;10.10;99.90;;;;;;4998526;28;20126;-74
2022/03/17 00:19:10;;;;;;;30.05;20.65;;;10.10;99.90;;;;;;4998398;28;20475;-73
2022/03/17 00:21:37;;;;;;;30.42;20.35;;;10.10;99.90;;;;;;4981181;28;20463;-75
2022/03/17 00:24:07;;;;;;;30.83;20.73;;;10.10;99.90;;;;;;4998098;28;20057;-74
2022/03/17 00:26:34;;;;;;;31.52;20.58;;;10.10;99.90;;;;;;4998232;28;21535;-74
2022/03/17 00:29:02;;;;;;;28.13;20.00;;;10.10;99.90;;;;;;4998429;28;20122;-74
2022/03/17 00:31:28;;;;;;;30.05;21.42;;;10.10;99.90;;;;;;4965778;28;20078;-73
2022/03/17 00:33:54;;;;;;;31.35;19.98;;;10.10;99.90;;;;;;4998469;28;20093;-75
2022/03/17 00:36:19;;;;;;;36.33;20.98;;;10.10;99.90;;;;;;4996794;28;20082;-74
2022/03/17 00:38:45;;;;;;;30.60;21.35;;;10.10;99.90;;;;;;4998395;28;20050;-74
2022/03/17 00:41:11;;;;;;;29.98;20.55;;;10.10;99.90;;;;;;4965021;28;20074;-73
2022/03/17 00:43:37;;;;;;;33.08;21.10;;;10.10;99.90;;;;;;4998299;28;20459;-75
2022/03/17 00:46:02;;;;;;;31.33;20.85;;;10.10;99.90;;;;;;4997965;28;20034;-74
2022/03/17 00:48:29;;;;;;;31.13;22.15;;;10.10;99.90;;;;;;4981171;28;20054;-76
2022/03/17 00:50:55;;;;;;;33.95;22.15;;;10.10;99.90;;;;;;4998046;28;20054;-74
2022/03/17 00:53:20;;;;;;;29.33;20.98;;;10.20;99.90;;;;;;4997956;28;20057;-72
2022/03/17 00:55:46;;;;;;;29.10;20.92;;;10.10;99.90;;;;;;4998143;28;20057;-71
2022/03/17 00:58:11;;;;;;;33.17;22.05;;;10.10;99.90;;;;;;4997500;28;20039;-72
2022/03/17 01:00:37;;;;;;;30.05;20.75;;;10.10;99.90;;;;;;4965353;28;20451;-72
2022/03/17 01:03:05;;;;;;;30.52;21.38;;;10.10;99.90;;;;;;4980619;28;20031;-74
2022/03/17 01:05:31;;;;;;;31.08;21.83;;;10.10;99.90;;;;;;4981054;28;20131;-74
2022/03/17 01:07:57;;;;;;;32.33;22.50;;;10.10;99.90;;;;;;4998077;28;20373;-72
2022/03/17 01:10:23;;;;;;;31.52;21.20;;;10.20;99.90;;;;;;4997698;28;20043;-73
2022/03/17 01:12:50;;;;;;;35.97;22.63;;;10.10;99.90;;;;;;4997679;28;20404;-75
2022/03/17 01:15:18;;;;;;;31.67;21.75;;;10.10;99.90;;;;;;4997524;28;20038;-74
2022/03/17 01:17:44;;;;;;;30.40;21.75;;;10.10;99.90;;;;;;4980186;28;20046;-74
2022/03/17 01:20:11;;;;;;;33.28;23.17;;;10.10;99.90;;;;;;4980568;28;20042;-73
2022/03/17 01:22:37;;;;;;;33.13;21.25;;;10.10;99.90;;;;;;4997425;28;20362;-75
2022/03/17 01:25:04;;;;;;;32.22;20.52;;;10.10;99.90;;;;;;4996547;28;20058;-72
2022/03/17 01:27:30;;;;;;;28.85;20.00;;;10.10;99.90;;;;;;4980280;28;20149;-72
2022/03/17 01:29:55;;;;;;;35.10;22.10;;;10.00;99.90;;;;;;4997329;28;20117;-73
2022/03/17 01:32:22;;;;;;;30.95;20.45;;;10.10;99.90;;;;;;4997209;28;20053;-73
2022/03/17 01:34:49;;;;;;;33.40;22.13;;;10.00;99.90;;;;;;4997153;28;20038;-71
2022/03/17 01:37:14;;;;;;;31.42;22.05;;;10.10;99.90;;;;;;4996673;28;20480;-72
2022/03/17 01:39:40;;;;;;;31.42;22.33;;;10.10;99.90;;;;;;4979854;28;20077;-73
2022/03/17 01:42:08;;;;;;;34.65;21.58;;;10.00;99.90;;;;;;4996876;28;20042;-72
2022/03/17 01:44:34;;;;;;;32.03;22.13;;;10.00;99.90;;;;;;4997138;28;20375;-73
2022/03/17 01:49:45;;;;;;;33.25;23.40;;;10.00;99.90;;;;;;4997624;28;20050;-74
2022/03/17 01:52:11;;;;;;;33.75;22.92;;;10.00;99.90;;;;;;4996855;28;20466;-74
2022/03/17 01:54:38;;;;;;;31.55;22.02;;;10.00;99.90;;;;;;4996526;28;20038;-74
2022/03/17 01:57:06;;;;;;;33.85;23.10;;;9.90;99.90;;;;;;4980064;28;20050;-73
2022/03/17 01:59:33;;;;;;;33.92;22.20;;;9.90;99.90;;;;;;4996678;28;20046;-75
2022/03/17 02:01:59;;;;;;;29.55;21.17;;;9.90;99.90;;;;;;4994091;28;20104;-73
2022/03/17 02:04:25;;;;;;;34.13;23.13;;;9.90;99.90;;;;;;4996754;28;20348;-75
2022/03/17 02:06:51;;;;;;;38.17;22.88;;;9.80;99.90;;;;;;4996676;28;20121;-76
2022/03/17 02:09:18;;;;;;;32.92;22.35;;;9.90;99.90;;;;;;4996400;28;20109;-74
2022/03/17 02:14:34;;;;;;;32.35;21.75;;;9.90;99.90;;;;;;4996414;28;20065;-72
2022/03/17 02:17:00;;;;;;;35.45;23.00;;;9.90;99.90;;;;;;4979021;28;20046;-71
2022/03/17 02:19:26;;;;;;;33.55;22.92;;;9.80;99.90;;;;;;4978934;28;20078;-74
2022/03/17 02:21:51;;;;;;;35.25;23.02;;;9.80;99.90;;;;;;4996377;28;20478;-73
2022/03/17 02:27:02;;;;;;;32.95;22.48;;;10.10;99.90;;;;;;4996383;28;20082;-73
2022/03/17 02:29:31;;;;;;;33.13;21.95;;;9.80;99.90;;;;;;4978912;28;20046;-73
2022/03/17 02:31:57;;;;;;;32.63;22.65;;;9.80;99.90;;;;;;4996323;28;20053;-71
2022/03/17 02:34:23;;;;;;;35.05;23.77;;;9.80;99.90;;;;;;4995977;28;20129;-73
2022/03/17 02:36:50;;;;;;;35.60;23.20;;;9.80;99.90;;;;;;4995962;28;20134;-70
2022/03/17 02:39:19;;;;;;;33.80;23.60;;;9.90;99.90;;;;;;4995972;28;20132;-71
2022/03/17 02:41:44;;;;;;;34.05;24.38;;;9.80;99.90;;;;;;4978549;28;20058;-72
2022/03/17 02:44:11;;;;;;;33.95;21.90;;;9.80;99.90;;;;;;4978383;28;20056;-70
2022/03/17 02:46:37;;;;;;;33.08;23.10;;;9.90;99.90;;;;;;4995689;28;20046;-70
2022/03/17 02:49:03;;;;;;;32.65;23.00;;;9.80;99.90;;;;;;4978816;28;20050;-72
2022/03/17 02:51:28;;;;;;;30.88;22.38;;;9.90;99.90;;;;;;4995756;28;20093;-71
2022/03/17 02:53:54;;;;;;;36.55;23.70;;;9.90;99.90;;;;;;4994926;28;20045;-72
2022/03/17 02:56:19;;;;;;;35.38;22.00;;;10.00;99.90;;;;;;4963006;28;20050;-75
2022/03/17 02:58:45;;;;;;;34.53;22.80;;;10.00;99.90;;;;;;4995171;28;20598;-74
2022/03/17 03:01:11;;;;;;;32.75;23.05;;;10.00;99.90;;;;;;4995525;28;20046;-71
2022/03/17 03:03:36;;;;;;;30.30;20.33;;;10.00;99.90;;;;;;4995599;28;20053;-71
2022/03/17 03:06:02;;;;;;;34.38;22.75;;;10.00;99.90;;;;;;4995484;28;20042;-73
2022/03/17 03:08:28;;;;;;;32.95;23.30;;;10.10;99.90;;;;;;4995678;28;20057;-72
2022/03/17 03:10:54;;;;;;;33.50;23.40;;;10.10;99.90;;;;;;4992638;28;20088;-72
2022/03/17 03:13:20;;;;;;;33.33;22.88;;;10.10;99.90;;;;;;4995926;28;20074;-72
2022/03/17 03:15:45;;;;;;;33.58;23.20;;;10.10;99.90;;;;;;4995498;28;20078;-72
2022/03/17 03:18:12;;;;;;;34.47;23.77;;;10.10;99.90;;;;;;4995380;28;20491;-71
2022/03/17 03:20:38;;;;;;;36.85;23.45;;;10.10;99.90;;;;;;4979026;28;20064;-72
2022/03/17 03:23:04;;;;;;;31.98;22.52;;;10.10;99.90;;;;;;4977924;28;20398;-72
2022/03/17 03:25:30;;;;;;;31.73;23.00;;;10.10;99.90;;;;;;4994758;28;20131;-71
2022/03/17 03:27:55;;;;;;;34.08;23.88;;;10.10;99.90;;;;;;4995529;28;20057;-71
2022/03/17 03:30:21;;;;;;;31.67;24.75;;;10.10;99.90;;;;;;4995423;28;20053;-75
2022/03/17 03:32:50;;;;;;;35.22;24.35;;;10.10;99.90;;;;;;4978869;28;20061;-73
2022/03/17 03:37:59;;;;;;;32.67;23.75;;;10.10;99.90;;;;;;4995397;28;20120;-75
2022/03/17 03:40:26;;;;;;;32.88;21.77;;;10.20;99.90;;;;;;4978188;28;20470;-72
2022/03/17 03:42:51;;;;;;;34.05;23.40;;;10.20;99.90;;;;;;4994783;28;20054;-73
2022/03/17 03:45:17;;;;;;;34.42;23.48;;;10.20;99.90;;;;;;4995086;28;20065;-72
2022/03/17 03:47:43;;;;;;;34.72;24.08;;;10.30;99.90;;;;;;4995668;28;20051;-72
2022/03/17 03:50:09;;;;;;;33.35;22.90;;;10.30;99.90;;;;;;4994543;28;20069;-72
2022/03/17 03:52:35;;;;;;;31.75;22.77;;;10.30;99.90;;;;;;4994600;28;20390;-71
2022/03/17 03:55:00;;;;;;;33.33;23.80;;;10.30;99.90;;;;;;4994222;28;20045;-72
2022/03/17 03:57:26;;;;;;;34.33;24.35;;;10.30;99.90;;;;;;4994724;28;20358;-73
2022/03/17 03:59:52;;;;;;;30.50;22.00;;;10.30;99.90;;;;;;4995076;28;20064;-73
2022/03/17 04:02:18;;;;;;;38.63;25.08;;;10.30;99.90;;;;;;4995437;28;20042;-72
2022/03/17 04:04:44;;;;;;;33.55;23.90;;;10.30;99.90;;;;;;4995845;28;20058;-71
2022/03/17 04:07:11;;;;;;;32.50;24.27;;;10.40;99.90;;;;;;4995109;28;20134;-74
2022/03/17 04:09:40;;;;;;;30.90;23.67;;;10.30;99.90;;;;;;4978178;28;20086;-72
2022/03/17 04:12:08;;;;;;;34.70;24.58;;;10.30;99.90;;;;;;4998402;28;20125;-72
2022/03/17 04:14:34;;;;;;;35.58;24.83;;;10.30;99.90;;;;;;4998651;28;20375;-73
2022/03/17 04:17:00;;;;;;;33.97;24.95;;;10.30;99.90;;;;;;4998547;28;20042;-71
2022/03/17 04:19:26;;;;;;;33.75;25.65;;;10.30;99.90;;;;;;4998684;28;20104;-72
2022/03/17 04:21:53;;;;;;;35.05;25.80;;;10.30;99.90;;;;;;4998253;28;20054;-72
2022/03/17 04:24:19;;;;;;;37.78;27.35;;;10.30;99.90;;;;;;4997926;28;20072;-73
2022/03/17 04:26:45;;;;;;;37.83;26.67;;;10.20;99.90;;;;;;4997865;28;20121;-71
2022/03/17 04:29:12;;;;;;;36.67;27.70;;;10.20;99.90;;;;;;4998309;28;20078;-73
2022/03/17 04:31:39;;;;;;;36.55;27.63;;;10.20;99.90;;;;;;4998703;28;20050;-71
2022/03/17 04:34:04;;;;;;;41.40;28.92;;;10.10;99.90;;;;;;4998448;28;20099;-72
2022/03/17 04:36:31;;;;;;;41.00;29.95;;;10.10;99.90;;;;;;4976619;28;20126;-71
2022/03/17 04:38:57;;;;;;;42.88;30.40;;;10.10;99.90;;;;;;4980978;28;20043;-72
2022/03/17 04:41:23;;;;;;;49.17;33.00;;;10.00;99.90;;;;;;4997791;28;20046;-72
2022/03/17 04:43:48;;;;;;;47.35;32.85;;;10.00;99.90;;;;;;4998261;28;20057;-71
2022/03/17 04:46:14;;;;;;;42.47;31.75;;;9.90;99.90;;;;;;4981263;28;20057;-73
2022/03/17 04:48:40;;;;;;;49.15;34.60;;;9.90;99.90;;;;;;4998285;28;20050;-72
2022/03/17 04:51:06;;;;;;;53.05;34.92;;;9.80;99.90;;;;;;4998233;28;20436;-73
2022/03/17 04:53:32;;;;;;;49.33;34.72;;;9.80;99.90;;;;;;4997735;28;20061;-73
2022/03/17 04:56:10;;;;;;;50.70;35.33;;;9.80;99.90;;;;;;4997842;28;20129;-72
2022/03/17 04:58:40;;;;;;;54.13;36.42;;;9.70;99.90;;;;;;4983768;28;20050;-72
2022/03/17 05:01:07;;;;;;;53.63;37.70;;;9.70;99.90;;;;;;4982344;28;20042;-73
2022/03/17 05:03:34;;;;;;;58.15;38.85;;;9.60;99.90;;;;;;4998646;28;20109;-70
2022/03/17 05:06:01;;;;;;;54.60;36.03;;;9.60;99.90;;;;;;4960716;28;20122;-72
2022/03/17 05:08:28;;;;;;;66.47;40.70;;;9.50;99.90;;;;;;4959605;28;20061;-71
2022/03/17 05:10:54;;;;;;;62.80;39.40;;;9.50;99.90;;;;;;4976023;28;20050;-73
2022/03/17 05:13:21;;;;;;;64.10;40.38;;;9.50;99.90;;;;;;4976075;28;20519;-72
2022/03/17 05:15:47;;;;;;;67.28;41.15;;;9.40;99.90;;;;;;4943777;28;20055;-71
2022/03/17 05:18:13;;;;;;;67.57;41.45;;;9.40;99.90;;;;;;4975859;28;20159;-72
2022/03/17 05:20:40;;;;;;;60.42;40.10;;;9.40;99.90;;;;;;4975957;28;20089;-73
2022/03/17 05:23:12;;;;;;;64.15;41.33;;;9.40;99.90;;;;;;4974782;28;20482;-71
2022/03/17 05:25:39;;;;;;;64.50;41.35;;;9.40;99.90;;;;;;4975350;28;20055;-70
2022/03/17 05:28:06;;;;;;;56.97;37.88;;;9.40;99.90;;;;;;4974735;28;20062;-72
2022/03/17 05:30:31;;;;;;;45.45;28.92;;;9.40;99.90;;;;;;4972239;28;20104;-73
2022/03/17 05:32:57;;;;;;;28.77;19.63;;;9.40;99.90;;;;;;4977041;28;20471;-73
2022/03/17 05:35:23;;;;;;;25.52;17.65;;;9.30;99.90;;;;;;4994977;28;20115;-73
2022/03/17 05:37:50;;;;;;;16.30;12.07;;;9.30;99.90;;;;;;4977202;28;20844;-72
2022/03/17 05:40:17;;;;;;;12.20;9.60;;;9.20;99.90;;;;;;4997010;28;20375;-72
2022/03/17 05:42:45;;;;;;;12.10;9.68;;;9.10;99.90;;;;;;4997356;28;20387;-74
2022/03/17 05:45:11;;;;;;;13.10;9.50;;;9.00;99.90;;;;;;4996810;28;20060;-73
2022/03/17 05:47:39;;;;;;;11.57;9.13;;;8.90;99.90;;;;;;4996521;28;20043;-72
2022/03/17 05:50:09;;;;;;;14.05;8.80;;;8.80;99.90;;;;;;4996365;28;20129;-71
2022/03/17 05:52:36;;;;;;;12.02;8.82;;;8.70;99.90;;;;;;4996422;28;20052;-72
2022/03/17 05:55:02;;;;;;;10.70;8.68;;;8.70;99.90;;;;;;4995548;28;20133;-71
2022/03/17 05:57:27;;;;;;;14.70;10.50;;;8.60;99.90;;;;;;4983527;28;20065;-68
2022/03/17 05:59:53;;;;;;;14.20;10.00;;;8.80;99.90;;;;;;4979810;28;20058;-69
2022/03/17 06:02:18;;;;;;;16.40;11.10;;;8.60;99.90;;;;;;4996262;28;20431;-75
2022/03/17 06:04:44;;;;;;;20.55;11.10;;;8.50;99.90;;;;;;4996444;28;20046;-73
2022/03/17 06:07:10;;;;;;;19.27;12.35;;;8.50;99.90;;;;;;4979676;28;20113;-70
2022/03/17 06:09:38;;;;;;;23.40;12.65;;;8.40;99.90;;;;;;4996212;28;20046;-72
2022/03/17 06:12:05;;;;;;;23.80;13.23;;;8.40;99.90;;;;;;4979188;28;20054;-72
2022/03/17 06:14:32;;;;;;;25.23;14.35;;;8.40;99.90;;;;;;4996431;28;20046;-72
2022/03/17 06:16:58;;;;;;;20.50;13.15;;;8.40;99.90;;;;;;4979260;28;20050;-73
2022/03/17 06:19:24;;;;;;;22.35;14.20;;;8.30;99.90;;;;;;4996191;28;20536;-71
2022/03/17 06:21:49;;;;;;;22.83;13.43;;;8.30;99.90;;;;;;4995986;28;20133;-73
2022/03/17 06:24:15;;;;;;;24.35;13.45;;;8.30;99.90;;;;;;4995788;28;20062;-72
2022/03/17 06:26:40;;;;;;;27.55;14.55;;;8.30;99.90;;;;;;4996315;28;20050;-72
2022/03/17 06:29:06;;;;;;;28.73;12.77;;;8.20;99.90;;;;;;4996306;28;20399;-72
2022/03/17 06:31:31;;;;;;;22.15;12.13;;;8.20;99.90;;;;;;4996105;28;20093;-70
2022/03/17 06:33:58;;;;;;;25.45;10.45;;;8.20;99.90;;;;;;4994694;28;20074;-72
2022/03/17 06:36:26;;;;;;;24.30;10.57;;;8.40;99.90;;;;;;4995795;28;20100;-71
2022/03/17 06:38:51;;;;;;;20.98;10.60;;;8.20;99.90;;;;;;4978972;28;20495;-71
2022/03/17 06:41:17;;;;;;;17.02;9.20;;;8.20;99.90;;;;;;4996104;28;20106;-73
2022/03/17 06:43:42;;;;;;;19.88;9.27;;;8.20;99.90;;;;;;4995991;28;20097;-72
2022/03/17 06:46:08;;;;;;;16.80;7.80;;;8.20;99.90;;;;;;4976158;28;20117;-71
2022/03/17 06:48:34;;;;;;;15.30;8.77;;;8.20;99.90;;;;;;4996411;28;20050;-73
2022/03/17 06:51:00;;;;;;;12.20;7.10;;;8.20;99.90;;;;;;4996164;28;20054;-71
2022/03/17 06:53:26;;;;;;;15.13;6.78;;;8.20;99.90;;;;;;4996181;28;20109;-72
2022/03/17 06:55:51;;;;;;;19.85;7.30;;;8.20;99.90;;;;;;4995944;28;20046;-73
2022/03/17 06:58:17;;;;;;;11.82;5.78;;;8.20;99.90;;;;;;4995474;28;20050;-71
2022/03/17 07:00:42;;;;;;;16.70;6.95;;;8.20;99.90;;;;;;4995875;28;20054;-71
2022/03/17 07:03:08;;;;;;;17.10;6.60;;;8.10;99.90;;;;;;4995296;28;20439;-74
2022/03/17 07:05:33;;;;;;;19.23;6.50;;;8.10;99.90;;;;;;4996364;28;20155;-72
2022/03/17 07:07:59;;;;;;;13.63;5.68;;;8.10;99.90;;;;;;4995923;28;20054;-72
2022/03/17 07:10:27;;;;;;;17.95;5.97;;;8.10;99.90;;;;;;4995500;28;20375;-71
2022/03/17 07:12:53;;;;;;;13.18;4.60;;;8.10;99.90;;;;;;4995709;28;20050;-73
2022/03/17 07:15:19;;;;;;;14.45;4.95;;;8.00;99.90;;;;;;4978279;28;20475;-70
2022/03/17 07:17:45;;;;;;;11.63;4.40;;;8.00;99.90;;;;;;4994785;28;20049;-72
2022/03/17 07:20:12;;;;;;;11.15;4.25;;;8.00;99.90;;;;;;4995807;28;20112;-73
2022/03/17 07:22:40;;;;;;;14.50;4.32;;;8.00;99.90;;;;;;4978208;28;20116;-71
2022/03/17 07:25:06;;;;;;;14.10;3.78;;;8.00;99.90;;;;;;4975074;28;20117;-72
2022/03/17 07:27:40;;;;;;;13.07;4.00;;;8.00;99.90;;;;;;4976304;28;20051;-74
2022/03/17 07:30:08;;;;;;;11.98;3.53;;;8.00;99.90;;;;;;4975171;28;20061;-73
2022/03/17 07:32:33;;;;;;;14.93;3.20;;;8.00;99.90;;;;;;4972342;28;20050;-72
2022/03/17 07:34:59;;;;;;;15.68;4.45;;;8.00;99.90;;;;;;4975770;28;20482;-72
2022/03/17 07:37:24;;;;;;;17.88;3.60;;;8.00;99.90;;;;;;4975737;28;20058;-71
2022/03/17 07:39:50;;;;;;;16.15;3.38;;;8.00;99.90;;;;;;4975810;28;20046;-72
2022/03/17 07:42:16;;;;;;;14.77;3.13;;;8.00;99.90;;;;;;4975860;28;20051;-72
2022/03/17 07:44:41;;;;;;;15.63;3.30;;;8.00;99.90;;;;;;4975661;28;20053;-72
2022/03/17 07:47:08;;;;;;;9.93;2.65;;;8.10;99.90;;;;;;4979332;28;20488;-74
2022/03/17 07:49:35;;;;;;;14.93;3.55;;;8.00;99.90;;;;;;4979482;28;20059;-72
2022/03/17 07:52:01;;;;;;;13.70;2.53;;;8.10;99.90;;;;;;4980003;28;20109;-71
2022/03/17 07:54:27;;;;;;;15.20;2.58;;;8.00;99.90;;;;;;4978554;28;20059;-74
2022/03/17 07:56:52;;;;;;;15.20;2.58;;;8.00;99.90;;;;;;4978960;28;20057;-73
2022/03/17 07:59:19;;;;;;;11.07;2.55;;;8.00;99.90;;;;;;4979613;28;20135;-72
2022/03/17 08:01:44;;;;;;;17.90;2.97;;;8.00;99.90;;;;;;4962400;28;20061;-72
2022/03/17 08:04:10;;;;;;;16.35;2.83;;;8.00;99.90;;;;;;4979050;28;20039;-72
2022/03/17 08:06:36;;;;;;;11.68;2.40;;;8.00;99.90;;;;;;4978836;28;20130;-71
2022/03/17 08:09:02;;;;;;;11.38;2.53;;;8.00;99.90;;;;;;4979291;28;20133;-73
2022/03/17 08:11:28;;;;;;;18.73;3.22;;;8.00;99.90;;;;;;4979549;28;20039;-73
2022/03/17 08:13:54;;;;;;;17.75;3.28;;;8.00;99.90;;;;;;4979238;28;20051;-73
2022/03/17 08:16:19;;;;;;;13.90;2.20;;;8.00;99.90;;;;;;4979255;28;20418;-72
2022/03/17 08:18:45;;;;;;;12.93;2.92;;;8.10;99.90;;;;;;4978155;28;20054;-73
2022/03/17 08:21:12;;;;;;;17.23;2.53;;;8.00;99.90;;;;;;4979171;28;20134;-73
2022/03/17 08:23:38;;;;;;;15.73;2.97;;;8.10;99.90;;;;;;4978617;28;20070;-73
2022/03/17 08:26:03;;;;;;;12.95;2.33;;;8.10;99.90;;;;;;4998363;28;20058;-72
2022/03/17 08:28:30;;;;;;;12.40;2.58;;;8.10;99.90;;;;;;4998580;28;20038;-73
2022/03/17 08:30:55;;;;;;;16.48;2.40;;;8.10;99.90;;;;;;4981249;28;20129;-71
2022/03/17 08:33:21;;;;;;;13.20;2.38;;;8.10;99.90;;;;;;4997954;28;20416;-73
2022/03/17 08:35:47;;;;;;;13.50;2.55;;;8.10;99.90;;;;;;4997750;28;20133;-72
2022/03/17 08:38:13;;;;;;;17.65;3.05;;;8.20;99.90;;;;;;4997701;28;20046;-72
2022/03/17 08:40:40;;;;;;;18.23;3.08;;;8.20;99.90;;;;;;4980709;28;20474;-71
2022/03/17 08:43:07;;;;;;;18.73;2.67;;;8.20;99.90;;;;;;4997893;28;20049;-73
2022/03/17 08:51:01;;;;;;;19.15;3.05;;;8.30;99.90;;;;;;4981014;28;20054;-73
2022/03/17 08:53:27;;;;;;;13.38;2.13;;;8.30;99.90;;;;;;4998192;28;20098;-73
2022/03/17 08:55:53;;;;;;;13.43;2.30;;;8.30;99.90;;;;;;4980279;28;20043;-71
2022/03/17 08:58:18;;;;;;;17.23;2.83;;;8.40;99.90;;;;;;4997062;28;20121;-71
2022/03/17 09:00:44;;;;;;;11.98;2.45;;;8.40;99.90;;;;;;4997673;28;20038;-72
2022/03/17 09:03:10;;;;;;;16.15;3.33;;;8.40;99.90;;;;;;4997232;28;20038;-72
2022/03/17 09:05:36;;;;;;;12.25;2.58;;;8.30;99.90;;;;;;4980658;28;20050;-74
2022/03/17 09:08:05;;;;;;;13.02;2.55;;;8.30;99.90;;;;;;4997725;28;20050;-72
2022/03/17 09:10:32;;;;;;;13.85;2.72;;;8.30;99.90;;;;;;4997556;28;20034;-72
2022/03/17 09:13:05;;;;;;;19.00;2.50;;;8.30;99.90;;;;;;4997199;28;20455;-73
2022/03/17 09:15:31;;;;;;;16.25;2.65;;;8.20;99.90;;;;;;4997464;28;20470;-73
2022/03/17 09:17:57;;;;;;;16.75;2.63;;;8.20;99.90;;;;;;4997774;28;20043;-72
2022/03/17 09:20:23;;;;;;;11.02;2.53;;;8.30;99.90;;;;;;4980283;28;20042;-71
2022/03/17 09:22:49;;;;;;;13.07;2.67;;;8.40;99.90;;;;;;4997286;28;20347;-72
2022/03/17 09:25:15;;;;;;;17.67;3.03;;;8.50;99.90;;;;;;4996887;28;20144;-71
2022/03/17 09:27:41;;;;;;;10.63;2.20;;;8.60;99.90;;;;;;4997063;28;20057;-73
2022/03/17 09:30:07;;;;;;;14.30;2.45;;;8.80;99.90;;;;;;4997563;28;20042;-73
2022/03/17 09:32:32;;;;;;;10.88;2.85;;;8.80;99.90;;;;;;4997112;28;20112;-73
2022/03/17 09:34:58;;;;;;;10.75;2.00;;;8.80;99.90;;;;;;4964102;28;20050;-72
2022/03/17 09:37:25;;;;;;;12.07;2.13;;;8.70;99.90;;;;;;4997130;28;20053;-70
2022/03/17 09:39:50;;;;;;;16.10;2.88;;;8.70;99.90;;;;;;4996969;28;20100;-71
2022/03/17 09:42:18;;;;;;;20.23;3.35;;;8.70;99.90;;;;;;4997118;28;20042;-71
2022/03/17 09:44:50;;;;;;;15.73;2.58;;;8.60;99.90;;;;;;4996962;28;20049;-73
2022/03/17 09:47:20;;;;;;;16.70;2.50;;;8.50;99.90;;;;;;4996624;28;20046;-73
2022/03/17 09:49:54;;;;;;;13.00;2.08;;;8.50;99.90;;;;;;4996983;28;20517;-72
2022/03/17 09:52:23;;;;;;;;;;;8.50;99.90;;;;;;4980083;28;20056;-75
2022/03/17 09:54:50;;;;;;;19.50;3.40;;;8.50;99.90;;;;;;4996665;28;19932;-71
2022/03/17 09:57:16;;;;;;;17.35;3.20;;;8.60;99.90;;;;;;4996832;28;20072;-73
2022/03/17 09:59:48;;;;;;;11.98;2.42;;;8.80;99.90;;;;;;4996632;28;20042;-73
2022/03/17 10:02:16;;;;;;;14.07;2.75;;;8.90;99.90;;;;;;4996185;28;20072;-73
2022/03/17 10:04:44;;;;;;;16.52;2.92;;;9.10;99.90;;;;;;4996079;28;20517;-71
2022/03/17 10:07:09;;;;;;;15.30;2.58;;;9.20;99.90;;;;;;4996876;28;20050;-72
2022/03/17 10:09:35;;;;;;;15.85;2.75;;;9.40;99.90;;;;;;4996732;28;20035;-72
2022/03/17 10:12:02;;;;;;;17.27;2.67;;;9.40;99.90;;;;;;4996439;28;20151;-72
2022/03/17 10:14:45;;;;;;;17.27;3.40;;;9.50;99.90;;;;;;4996302;28;20049;-73
2022/03/17 10:17:34;;;;;;;19.02;3.53;;;9.60;99.90;;;;;;4996442;28;20053;-73
2022/03/17 10:20:12;;;;;;;17.38;3.00;;;9.60;99.90;;;;;;4979774;28;20046;-72
2022/03/17 10:22:58;;;;;;;11.57;2.58;;;9.80;99.90;;;;;;4979386;28;20152;-73
2022/03/17 10:25:32;;;;;;;9.93;2.13;;;10.00;99.90;;;;;;4994778;28;20062;-71
2022/03/17 10:27:59;;;;;;;10.43;2.17;;;10.00;99.90;;;;;;4996565;28;20061;-72
2022/03/17 10:30:36;;;;;;;15.98;2.45;;;10.10;99.90;;;;;;4996382;28;20362;-73
2022/03/17 10:33:01;;;;;;;14.43;2.05;;;10.00;99.90;;;;;;4995695;28;20101;-73
2022/03/17 10:35:34;;;;;;;10.20;2.00;;;10.20;99.90;;;;;;4995943;28;20046;-75
2022/03/17 10:38:14;;;;;;;16.20;2.20;;;10.30;99.90;;;;;;4978376;28;20455;-73
2022/03/17 10:40:41;;;;;;;11.80;2.50;;;10.40;99.90;;;;;;4978707;28;20115;-72
2022/03/17 10:43:24;;;;;;;19.70;2.40;;;10.50;99.90;;;;;;4995888;28;20049;-73
2022/03/17 10:46:07;;;;;;;11.68;1.92;;;10.70;99.90;;;;;;4996135;28;20046;-71
2022/03/17 10:48:33;;;;;;;13.50;2.23;;;11.00;99.90;;;;;;4995926;28;20068;-73
2022/03/17 10:50:59;;;;;;;13.52;2.00;;;11.10;99.90;;;;;;4995734;28;20377;-70
2022/03/17 10:53:30;;;;;;;13.27;2.63;;;11.10;99.90;;;;;;4995802;28;20490;-72
2022/03/17 10:56:12;;;;;;;12.35;2.30;;;11.20;99.90;;;;;;4995742;28;20034;-74
2022/03/17 10:58:43;;;;;;;14.70;2.50;;;11.20;99.90;;;;;;4995849;28;20054;-73
2022/03/17 11:01:09;;;;;;;13.25;2.33;;;11.10;99.90;;;;;;4995826;28;20042;-72
2022/03/17 11:03:35;;;;;;;9.40;2.40;;;11.00;99.90;;;;;;4978053;28;20101;-73
2022/03/17 11:06:03;;;;;;;11.55;2.35;;;10.90;99.90;;;;;;4995678;28;20462;-72
2022/03/17 11:08:31;;;;;;;10.48;1.98;;;11.00;99.90;;;;;;4978744;28;20367;-73
2022/03/17 11:10:57;;;;;;;10.90;2.03;;;11.00;99.90;;;;;;4978371;28;20050;-73
2022/03/17 11:13:23;;;;;;;12.25;2.10;;;11.00;99.90;;;;;;4995317;28;20374;-71
2022/03/17 11:16:07;;;;;;;9.02;2.00;;;10.90;99.90;;;;;;4995396;28;20042;-72
2022/03/17 11:18:36;;;;;;;19.70;2.60;;;10.90;99.90;;;;;;4995652;28;20046;-73
2022/03/17 11:21:21;;;;;;;20.52;2.78;;;10.80;99.90;;;;;;4995109;28;20347;-72
2022/03/17 11:24:05;;;;;;;10.05;1.92;;;10.80;99.90;;;;;;4995250;28;20042;-71
2022/03/17 11:26:38;;;;;;;;;;;10.80;99.90;;;;;;4996097;28;20101;-74
2022/03/17 11:29:04;;;;;;;11.50;2.13;;;11.00;99.90;;;;;;4978500;28;19926;-72
2022/03/17 11:31:50;;;;;;;16.10;2.30;;;11.20;99.90;;;;;;4995767;28;20137;-72
2022/03/17 11:34:38;;;;;;;13.27;2.13;;;11.20;99.90;;;;;;4975865;28;20053;-73
2022/03/17 11:37:21;;;;;;;14.52;2.80;;;11.10;99.90;;;;;;4975988;28;20058;-71
2022/03/17 11:39:57;;;;;;;15.57;2.90;;;11.10;99.90;;;;;;4976138;28;20080;-72
2022/03/17 11:42:35;;;;;;;14.38;2.67;;;11.10;99.90;;;;;;4975676;28;20134;-72
2022/03/17 11:45:13;;;;;;;13.82;2.70;;;11.20;99.90;;;;;;4975828;28;20057;-71
2022/03/17 11:47:47;;;;;;;13.88;2.58;;;11.30;99.90;;;;;;4975621;28;20058;-71
2022/03/17 11:50:22;;;;;;;17.30;3.38;;;11.30;99.90;;;;;;4976016;28;20043;-74
2022/03/17 11:52:58;;;;;;;10.93;2.55;;;11.30;99.90;;;;;;4975734;28;20087;-72
2022/03/17 11:55:56;;;;;;;9.68;2.20;;;11.40;99.90;;;;;;4958776;28;20117;-73
2022/03/17 11:58:46;;;;;;;11.40;2.33;;;11.50;99.90;;;;;;4975473;28;20046;-72
2022/03/17 12:01:23;;;;;;;10.55;2.45;;;11.70;99.90;;;;;;4975799;28;20062;-73
2022/03/17 12:03:57;;;;;;;9.70;2.50;;;11.50;99.90;;;;;;4977521;28;20054;-73
2022/03/17 12:06:30;;;;;;;11.00;2.83;;;11.30;99.90;;;;;;4978166;28;20137;-72
2022/03/17 12:09:01;;;;;;;13.68;2.60;;;11.40;99.90;;;;;;4994869;28;20439;-72
2022/03/17 12:11:31;;;;;;;12.63;2.63;;;11.40;99.90;;;;;;4977974;28;20042;-73
2022/03/17 12:14:17;;;;;;;9.68;2.72;;;11.60;99.90;;;;;;4995067;28;20051;-72
2022/03/17 12:17:21;;;;;;;8.75;2.50;;;11.70;99.90;;;;;;4978054;28;20079;-73
2022/03/17 12:19:51;;;;;;;;;;;11.80;99.90;;;;;;4970122;28;20073;-74
2022/03/17 12:22:31;;;;;;;11.00;2.45;;;11.90;99.90;;;;;;4995063;28;19921;-72
2022/03/17 12:25:15;;;;;;;13.23;2.53;;;12.00;99.90;;;;;;4995212;28;20133;-73
2022/03/17 12:27:43;;;;;;;10.88;2.25;;;11.90;99.90;;;;;;4994364;28;20090;-72
2022/03/17 12:30:15;;;;;;;16.50;2.88;;;11.90;99.90;;;;;;4977744;28;20478;-73
2022/03/17 12:33:06;;;;;;;8.90;2.28;;;11.90;99.90;;;;;;4995863;28;20050;-73
2022/03/17 12:35:34;;;;;;;11.95;2.70;;;11.90;99.90;;;;;;4981303;28;20042;-73
2022/03/17 12:38:00;;;;;;;10.55;2.42;;;11.80;99.90;;;;;;4981090;28;20054;-73
2022/03/17 12:40:26;;;;;;;10.57;2.20;;;11.90;99.90;;;;;;4998518;28;20100;-71
2022/03/17 12:42:53;;;;;;;9.85;2.03;;;11.90;99.90;;;;;;4998298;28;20447;-72
2022/03/17 12:45:21;;;;;;;8.25;2.45;;;11.90;99.90;;;;;;4998029;28;20046;-71
2022/03/17 12:47:48;;;;;;;10.40;2.40;;;11.90;99.90;;;;;;4997887;28;20413;-73
2022/03/17 12:50:18;;;;;;;11.35;1.92;;;11.80;99.90;;;;;;4998317;28;20054;-73
2022/03/17 12:52:45;;;;;;;9.48;2.10;;;11.70;99.90;;;;;;4997626;28;20046;-72
2022/03/17 12:55:13;;;;;;;15.18;2.65;;;11.70;99.90;;;;;;4998330;28;20061;-72
2022/03/17 12:57:39;;;;;;;8.98;2.13;;;11.70;99.90;;;;;;4997809;28;20042;-73
2022/03/17 13:00:07;;;;;;;7.43;1.67;;;11.60;99.90;;;;;;4997627;28;20061;-71